createdAt,value
2022-09-29T17:03:15.006Z,54.37
2022-09-29T17:05:47.889Z,53.91
2022-09-29T17:08:25.078Z,53.17
2022-09-29T17:10:55.754Z,52.77
2022-09-29T17:13:24.722Z,52.63
2022-09-29T17:15:53.622Z,52.27
2022-09-29T17:18:23.592Z,52.01
2022-09-29T17:20:51.843Z,51.84
2022-09-29T17:23:20.062Z,51.69
2022-09-29T17:25:48.592Z,51.90
2022-09-29T17:28:20.336Z,52.03
2022-09-29T17:30:48.893Z,51.87
2022-09-29T17:33:18.774Z,51.35
2022-09-29T17:35:55.327Z,51.43
2022-09-29T17:38:24.515Z,51.95
2022-09-29T17:41:04.213Z,51.70
2022-09-29T17:43:32.793Z,51.67
2022-09-29T17:46:02.110Z,51.56
2022-09-29T17:48:30.999Z,51.51
2022-09-29T17:51:00.737Z,51.54
2022-09-29T17:53:28.916Z,51.34
2022-09-29T17:55:58.376Z,51.38
2022-09-29T17:58:26.852Z,51.62
2022-09-29T18:00:57.733Z,51.50
2022-09-29T18:03:26.096Z,51.45
2022-09-29T18:05:57.021Z,51.65
2022-09-29T18:08:27.272Z,51.48
2022-09-29T18:10:55.854Z,51.86
2022-09-29T18:13:27.513Z,51.48
2022-09-29T18:15:56.786Z,51.85
2022-09-29T18:18:26.394Z,51.90
2022-09-29T18:20:54.857Z,51.60
2022-09-29T18:23:24.393Z,51.68
2022-09-29T18:25:53.522Z,51.65
2022-09-29T18:28:21.917Z,51.59
2022-09-29T18:30:54.719Z,51.71
2022-09-29T18:33:23.163Z,51.80
2022-09-29T18:35:53.795Z,52.18
2022-09-29T18:38:23.539Z,51.96
2022-09-29T18:40:56.912Z,51.78
2022-09-29T18:43:27.637Z,51.79
2022-09-29T18:45:57.995Z,51.90
2022-09-29T18:48:26.493Z,51.74
2022-09-29T18:50:57.100Z,51.61
2022-09-29T18:53:25.935Z,51.65
2022-09-29T18:56:02.049Z,51.54
2022-09-29T18:58:32.149Z,51.66
2022-09-29T19:01:02.833Z,51.55
2022-09-29T19:03:32.432Z,51.28
2022-09-29T19:06:01.668Z,51.36
2022-09-29T19:08:33.534Z,51.42
2022-09-29T19:11:05.160Z,51.45
2022-09-29T19:13:33.742Z,51.84
2022-09-29T19:16:04.162Z,52.04
2022-09-29T19:18:32.993Z,52.01
2022-09-29T19:21:01.362Z,51.82
2022-09-29T19:23:29.999Z,51.86
2022-09-29T19:26:02.172Z,52.20
2022-09-29T19:28:30.574Z,51.91
2022-09-29T19:31:06.078Z,52.01
2022-09-29T19:33:35.352Z,52.33
2022-09-29T19:36:07.933Z,51.85
2022-09-29T19:38:38.123Z,51.81
2022-09-29T19:41:17.248Z,52.10
2022-09-29T19:43:46.437Z,51.75
2022-09-29T19:46:15.940Z,51.63
2022-09-29T19:48:45.427Z,51.77
2022-09-29T19:51:34.914Z,51.96
2022-09-29T19:54:15.042Z,51.73
2022-09-29T19:56:52.683Z,51.60
2022-09-29T19:59:27.214Z,51.50
2022-09-29T20:01:56.933Z,51.52
2022-09-29T20:04:30.171Z,51.43
2022-09-29T20:06:59.037Z,51.29
2022-09-29T20:09:27.681Z,51.70
2022-09-29T20:11:56.492Z,51.36
2022-09-29T20:14:26.380Z,51.40
2022-09-29T20:16:57.834Z,51.21
2022-09-29T20:19:28.812Z,51.22
2022-09-29T20:21:57.789Z,51.58
2022-09-29T20:24:26.130Z,51.37
2022-09-29T20:26:58.010Z,51.31
2022-09-29T20:29:29.538Z,50.79
2022-09-29T20:31:58.297Z,51.24
2022-09-29T20:34:27.220Z,51.22
2022-09-29T20:36:56.155Z,50.98
2022-09-29T20:39:27.897Z,50.96
2022-09-29T20:41:58.553Z,51.10
2022-09-29T20:44:27.312Z,51.08
2022-09-29T20:46:57.102Z,51.28
2022-09-29T20:49:26.899Z,50.96
2022-09-29T20:51:55.426Z,51.18
2022-09-29T20:54:23.914Z,51.10
2022-09-29T20:56:53.848Z,51.27
2022-09-29T20:59:23.627Z,51.12
2022-09-29T21:01:54.057Z,51.04
2022-09-29T21:04:24.065Z,50.81
2022-09-29T21:06:53.227Z,50.91
2022-09-29T21:09:24.471Z,51.28
2022-09-29T21:11:54.853Z,51.02
2022-09-29T21:14:28.436Z,51.47
2022-09-29T21:16:58.586Z,51.01
2022-09-29T21:19:27.325Z,50.98
2022-09-29T21:21:56.471Z,50.93
2022-09-29T21:24:25.515Z,51.41
2022-09-29T21:26:53.925Z,51.28
2022-09-29T21:29:22.494Z,51.05
2022-09-29T21:31:51.320Z,51.19
2022-09-29T21:34:20.369Z,51.16
2022-09-29T21:36:48.854Z,51.39
2022-09-29T21:39:17.652Z,51.41
2022-09-29T21:41:46.695Z,51.03
2022-09-29T21:44:18.042Z,51.13
2022-09-29T21:46:47.471Z,51.12
2022-09-29T21:49:16.829Z,51.00
2022-09-29T21:51:48.493Z,51.11
2022-09-29T21:54:20.246Z,51.09
2022-09-29T21:56:49.433Z,51.06
2022-09-29T21:59:20.083Z,50.87
2022-09-29T22:01:49.457Z,51.16
2022-09-29T22:04:18.725Z,51.14
2022-09-29T22:06:47.168Z,50.75
2022-09-29T22:09:19.216Z,50.77
2022-09-29T22:11:50.656Z,51.11
2022-09-29T22:14:20.457Z,50.99
2022-09-29T22:16:49.154Z,50.74
2022-09-29T22:19:23.829Z,51.09
2022-09-29T22:21:54.831Z,50.56
2022-09-29T22:24:26.878Z,50.59
2022-09-29T22:26:55.565Z,50.90
2022-09-29T22:29:25.669Z,50.54
2022-09-29T22:31:54.541Z,50.66
2022-09-29T22:34:26.396Z,50.60
2022-09-29T22:36:54.876Z,50.75
2022-09-29T22:39:23.396Z,50.67
2022-09-29T22:41:53.479Z,50.50
2022-09-29T22:44:21.853Z,50.38
2022-09-29T22:46:54.335Z,50.25
2022-09-29T22:49:22.837Z,50.46
2022-09-29T22:51:51.381Z,50.38
2022-09-29T22:54:22.904Z,50.21
2022-09-29T22:56:55.643Z,50.09
2022-09-29T22:59:24.513Z,50.43
2022-09-29T23:01:53.315Z,50.35
2022-09-29T23:04:21.819Z,50.30
2022-09-29T23:06:53.764Z,50.54
2022-09-29T23:09:24.956Z,50.33
2022-09-29T23:11:55.738Z,50.36
2022-09-29T23:14:24.287Z,50.16
2022-09-29T23:16:52.738Z,50.40
2022-09-29T23:19:21.599Z,50.18
2022-09-29T23:21:50.158Z,50.15
2022-09-29T23:24:20.668Z,50.18
2022-09-29T23:26:49.337Z,50.34
2022-09-29T23:29:18.277Z,50.07
2022-09-29T23:31:49.589Z,50.33
2022-09-29T23:34:20.738Z,50.08
2022-09-29T23:36:49.336Z,50.17
2022-09-29T23:39:18.305Z,50.23
2022-09-29T23:41:49.206Z,50.37
2022-09-29T23:44:23.831Z,50.56
2022-09-29T23:46:54.728Z,50.32
2022-09-29T23:49:25.568Z,50.52
2022-09-29T23:51:56.917Z,50.40
2022-09-29T23:54:26.778Z,50.73
2022-09-29T23:56:56.864Z,50.51
2022-09-29T23:59:26.647Z,50.60
